Caio Braga

Скаут - Grêmio
19 Авг 2027
Четверг
Продолжить

Характер

Адаптивность (5) Амбиции (6) Скандальность (4) Верность (19) Стрессоустойчивость (12) Профессионализм (18) Благородство (12) Темперамент (10)

Профиль

Стиль управления Демократичный
Лицензия Континентальная C
Решительность 9
Управление людьми 6
Мотивация 9
Дисциплина 6
Удовлетворённость
100%
Усталость
0%
Должность Скаут
Зарплата 104.4K в нед.
Контракт 14.03.2030

Производительность

Поведение Хорошее
Эффективность тренировок
49%
Развитие игроков
60%
Профилактика травм
55%
Тактическая реализация
35%

Недавние события

Оценил игрока только что
Участвовал в селекционном совещании только что
Рекомендовал трансферную цель только что
Рекомендовал трансферную цель только что
Участвовал в селекционном совещании только что
Оценил игрока 7 дн. назад
Оценил игрока 7 дн. назад
Оценил игрока 7 дн. назад

Текущее наблюдение

207
Игрок Клуб Статус Способность Уверенность Наблюдений Последнее наблюдение Последний голос
Fikayo Tomori AC Milan Активный 155 / 151 40% 2 17.08.2027 -
Emanuele Valeri Parma Активный 142 / 140 40% 2 17.08.2027 -
Benedict Hollerbach Mainz 05 Активный 141 / 139 40% 2 17.08.2027 -
Andrea Colpani Monza Активный 144 / 144 40% 2 17.08.2027 -
Gaetano Castrovilli Cesena Активный 137 / 139 40% 1 17.08.2027 -
Alessandro Bastoni Inter Активный 166 / 169 40% 1 17.08.2027 -
Samuele Angori Pisa Активный 136 / 135 40% 1 16.08.2027 -
Alessandro Buongiorno Sassuolo Активный 162 / 156 40% 1 16.08.2027 -
Daniel Tonoli Modena Активный 132 / 133 40% 1 16.08.2027 -
Nadir Zortea Bologna Активный 140 / 139 40% 1 13.08.2027 -
Alessandro Sersanti Modena Активный 128 / 134 40% 1 13.08.2027 -
Franck Kessié Atalanta Активный 152 / 147 40% 1 13.08.2027 -
Diego Moreira AC Milan Активный 147 / 147 40% 1 12.08.2027 -
Nuno Tavares Lazio Активный 149 / 146 40% 1 12.08.2027 -
Lewis Ferguson Bologna Активный 148 / 151 40% 1 12.08.2027 -
Assane Diao Lazio Активный 153 / 158 40% 1 11.08.2027 -
Manu Koné AS Roma Активный 167 / 169 40% 3 10.08.2027 Нужно больше данных
Guille Rosas Gijón Активный 142 / 144 40% 3 10.08.2027 -
Donyell Malen AS Roma Активный 155 / 151 40% 1 10.08.2027 -
Carlos Augusto Inter Активный 153 / 158 40% 1 10.08.2027 -
Welington Southampton Активный 134 / 139 40% 10 08.08.2027 -
Hector Ramirez Newcastle United Активный 154 / 157 40% 2 08.08.2027 Нужно больше данных
Jack Rudoni Coventry City Активный 141 / 134 40% 6 08.08.2027 -
Callum O'Hare Sheffield United Активный 137 / 134 40% 4 08.08.2027 -
Mikkel Damsgaard Brentford Активный 148 / 150 40% 1 08.08.2027 -
Borja Sainz Fiorentina Активный 155 / 144 40% 2 06.08.2027 -
Callum Hudson-Odoi Nottingham Forest Активный 154 / 155 40% 1 06.08.2027 -
Azor Matusiwa Ipswich Town Активный 141 / 139 40% 1 05.08.2027 -
Adrià Altimira Deportivo La Coruña Активный 136 / 132 40% 1 04.08.2027 -
Kiernan Dewsbury-Hall Everton Активный 153 / 152 40% 3 03.08.2027 -
Léo Scienza Southampton Активный 142 / 140 40% 2 03.08.2027 -
Giacomo Raspadori Atalanta Активный 154 / 152 40% 1 03.08.2027 -
Tom Fellows Southampton Активный 137 / 135 40% 5 30.07.2027 -
Xavi Simons Tottenham Активный 161 / 165 40% 2 30.07.2027 -
Dango Ouattara Brentford Активный 151 / 145 40% 3 30.07.2027 -
Nicolas Jackson Aston Villa Активный 151 / 145 40% 1 28.07.2027 -
Georginio Rutter Brighton Активный 152 / 146 40% 1 28.07.2027 -
Harry Wilson Leeds United Активный 145 / 152 40% 1 27.07.2027 -
Jacob Ramsey Newcastle United Активный 156 / 147 40% 1 27.07.2027 -
Morgan Whittaker Middlesbrough Активный 137 / 131 40% 3 26.07.2027 -
Carlos Vicente Birmingham Активный 147 / 147 40% 1 26.07.2027 -
Joe Gelhardt Hull City Активный 136 / 138 40% 1 24.07.2027 -
Finn Azaz Southampton Активный 133 / 137 40% 2 23.07.2027 -
Mohamed-Ali Cho Hull City Активный 142 / 142 40% 1 23.07.2027 -
Riley McGree Middlesbrough Активный 136 / 136 40% 2 19.07.2027 -
Pedro Flamengo Упущен 141 / 145 86% 1 28.06.2027 За
Lucas Moura Sport Recife Активный 134 / 134 86% 1 03.06.2027 За
Curtis Jones Inter Активный 155 / 151 40% 8 31.05.2027 -
Ethan Galbraith Swansea City Активный 134 / 130 40% 3 30.05.2027 -
Óscar Mingueza Crystal Palace Активный 152 / 152 40% 2 30.05.2027 -
Derry Murkin Derby County Активный 126 / 122 40% 1 30.05.2027 -
Marco Asensio Fenerbahce Активный 160 / 155 40% 2 29.05.2027 Нужно больше данных
James Trafford Leeds United Активный 142 / 149 40% 4 28.05.2027 Наблюдать
Jacob Widell Zetterström Derby County Активный 134 / 128 40% 1 28.05.2027 -
Jamie Cumming Oxford United Активный 129 / 126 40% 1 28.05.2027 -
Dara O'Shea Ipswich Town Активный 140 / 134 40% 3 26.05.2027 -
Nico González Newcastle United Активный 162 / 166 40% 4 25.05.2027 Наблюдать
Adrien Truffert Bournemouth Активный 154 / 145 40% 2 25.05.2027 -
Milan van Ewijk Mansfield Town Активный 127 / 125 40% 3 24.05.2027 -
Rob Atkinson Bristol City Активный 122 / 126 40% 1 24.05.2027 -
Callum Doyle Wrexham Активный 133 / 132 40% 3 23.05.2027 -
Shea Charles Southampton Активный 139 / 138 40% 2 22.05.2027 -
Sven Botman Newcastle United Активный 160 / 160 40% 2 22.05.2027 -
Mads Hermansen West Ham United Активный 143 / 139 40% 3 20.05.2027 -
Michael Cooper Sheffield United Упущен 132 / 129 40% 2 20.05.2027 -
Saša Lukić Ipswich Town Активный 141 / 140 40% 3 18.05.2027 -
Arijanet Murić Sassuolo Активный 138 / 147 40% 3 17.05.2027 -
Dean Henderson Crystal Palace Активный 152 / 150 40% 2 17.05.2027 -
Lorenzo Palmisani Frosinone Активный 126 / 129 40% 1 15.05.2027 -
Anatolii Trubin Juventus Активный 156 / 159 40% 1 15.05.2027 -
Alexander Nübel Besiktas Упущен 149 / 144 40% 1 14.05.2027 -
Radek Vítek Middlesbrough Активный 141 / 145 40% 2 12.05.2027 Нужно больше данных
Balázs Tóth Blackburn Rovers Активный 132 / 123 40% 2 12.05.2027 -
Mats Wieffer Brighton Активный 148 / 144 40% 1 12.05.2027 -
Adam Wharton Crystal Palace Активный 154 / 154 40% 2 11.05.2027 -
Nordi Mukiele Sunderland Активный 142 / 144 40% 1 11.05.2027 -
Kostantis Tzolakis Hull City Активный 147 / 143 40% 5 09.05.2027 -
Max O'Leary West Bromwich Albion Активный 133 / 131 40% 2 09.05.2027 -
Alex Meret Napoli Активный 157 / 160 40% 2 08.05.2027 -
Ousmane Diomande Nottingham Forest Активный 153 / 150 40% 1 08.05.2027 -
Michele Cerofolini Bari Упущен 129 / 128 40% 2 06.05.2027 -
Bilal Bayazıt Kayserispor Активный 126 / 128 40% 1 06.05.2027 -
Caoimhin Kelleher Brentford Активный 151 / 155 40% 3 05.05.2027 -
Tyler Adams Bournemouth Активный 154 / 150 40% 1 04.05.2027 -
Amadou Onana Aston Villa Активный 159 / 158 40% 1 04.05.2027 -
Boubacar Kamara Aston Villa Активный 166 / 164 40% 1 04.05.2027 -
Anton Stach Leeds United Активный 146 / 144 40% 1 02.05.2027 -
Daniel Iversen Preston Активный 129 / 127 40% 1 29.04.2027 -
Kenny Tete Fulham Активный 142 / 142 40% 2 28.04.2027 -
Jan Paul van Hecke Tottenham Активный 162 / 156 40% 2 28.04.2027 -
Xaver Schlager Nottingham Forest Активный 154 / 150 40% 1 28.04.2027 Нужно больше данных
Juan Soriano Académico de Viseu Активный 132 / 130 40% 2 25.04.2027 -
Bright Arrey-Mbi Braga Активный 138 / 139 40% 10 24.04.2027 -
Iván Fresneda Sporting CP Активный 143 / 142 40% 16 24.04.2027 -
Cezary Miszta Rio Ave Активный 133 / 130 40% 3 24.04.2027 -
Nicolas Schmid Portsmouth Активный 126 / 123 40% 1 24.04.2027 -
Patrick Sequeira Casa Pia Активный 128 / 128 40% 3 19.04.2027 -
Pau Víctor AVS Активный 135 / 135 40% 9 18.04.2027 -
Tomás Araújo Benfica Активный 149 / 144 40% 17 17.04.2027 -
Ryan Sessegnon Fulham Активный 149 / 151 40% 1 17.04.2027 -
Ignacio de Arruabarrena Arouca Активный 125 / 132 40% 1 15.04.2027 -
Lazar Carević Famalicao Активный 137 / 131 40% 1 15.04.2027 -
Fredrik Aursnes Benfica Активный 147 / 150 40% 4 14.04.2027 -
Agustín Palavecino Cruz Azul Активный 134 / 141 40% 2 14.04.2027 -
Kristoffer Lund Birmingham Активный 133 / 130 40% 1 14.04.2027 -
Luke McNally Bristol City Активный 134 / 135 40% 1 14.04.2027 -
Francisco Moura Lusitânia Lourosa Активный 144 / 140 40% 4 12.04.2027 -
Kyle Walker-Peters West Ham United Активный 133 / 134 40% 1 12.04.2027 -
Harry Clarke Preston Активный 130 / 130 40% 1 12.04.2027 -
Gonçalo Inácio Sporting CP Активный 147 / 153 40% 11 09.04.2027 -
Luís Esteves Atlas Активный 132 / 126 40% 6 09.04.2027 -
Jordan Holsgrove Estoril Praia Активный 131 / 127 40% 8 07.04.2027 -
Renato Sanches AVS Активный 136 / 126 40% 5 07.04.2027 -
Robin Roefs Sunderland Активный 147 / 148 40% 1 06.04.2027 Нужно больше данных
Jan Bednarek Porto Активный 146 / 140 40% 9 05.04.2027 -
Hwang In-Beom Porto Активный 144 / 145 40% 14 05.04.2027 -
João Palhinha Benfica Активный 154 / 145 40% 13 04.04.2027 -
Javi Sánchez Arouca Активный 128 / 132 40% 4 02.04.2027 -
Víctor Gómez Braga Активный 141 / 133 40% 17 01.04.2027 -
Alejandro Zendejas Club America Активный 142 / 139 40% 2 01.04.2027 -
Alberto Costa Porto Активный 142 / 148 40% 14 28.03.2027 -
Alan Varela Porto Активный 148 / 148 40% 6 26.03.2027 -
Pablo Rosario Porto Активный 144 / 132 40% 5 26.03.2027 -
Mario Dorgeles Braga Активный 140 / 137 40% 5 26.03.2027 -
Santi García Gil Vicente Активный 137 / 129 40% 9 22.03.2027 -
Samu Vitoria Guimaraes Активный 128 / 123 40% 2 22.03.2027 -
Eduardo Quaresma Sporting CP Активный 141 / 142 40% 6 20.03.2027 -
Luis Quintero Torreense Активный 131 / 125 40% 2 19.03.2027 -
Luís Guilherme Sporting CP Активный 128 / 131 40% 5 17.03.2027 -
Paulo Moreira Farense Активный 129 / 128 40% 4 15.03.2027 -
Valery Académico de Viseu Активный 127 / 116 40% 1 14.03.2027 -
Derensili Sanches Fernandes Huddersfield Town Активный 122 / 121 40% 1 12.03.2027 -
Rodrigo Pinheiro Famalicao Активный 122 / 130 40% 11 11.03.2027 -
Leon Goretzka Aston Villa Активный 153 / 153 40% 2 11.03.2027 -
João Simões Sporting CP Активный 130 / 137 40% 7 11.03.2027 -
Gonzalo Piovi Cruz Azul Активный 139 / 124 40% 1 09.03.2027 -
Sergi Altimira Sporting CP Активный 135 / 145 40% 6 08.03.2027 -
Sikou Niakaté Braga Активный 137 / 141 40% 7 07.03.2027 -
Rafik Guitane Estoril Praia Активный 137 / 135 40% 1 07.03.2027 -
Max Bird Birmingham Активный 132 / 132 40% 5 05.03.2027 -
Diego Lainez Tigres Активный 129 / 126 40% 3 03.03.2027 -
Pepê Porto Активный 149 / 138 40% 4 02.03.2027 -
Gerardo Arteaga Monterrey Активный 137 / 128 40% 2 01.03.2027 -
William Gomes Porto Активный 139 / 141 40% 3 26.02.2027 -
Erick Sánchez OGC Nice Активный 137 / 144 40% 1 26.02.2027 -
Juninho Pumas UNAM Активный 127 / 131 40% 1 25.02.2027 -
Dodi Lukébakio Benfica Активный 144 / 143 40% 2 19.02.2027 -
Ozziel Herrera Tigres Активный 123 / 124 40% 2 16.02.2027 -
Ross McCrorie Bristol City Активный 132 / 131 40% 1 16.02.2027 -
Gustaf Lagerbielke Braga Активный 136 / 141 40% 1 16.02.2027 -
Joaquim Tigres Активный 131 / 124 40% 1 14.02.2027 -
Florentino Luís Ipswich Town Активный 140 / 142 40% 1 08.02.2027 -
Victor Froholdt Porto Активный 149 / 153 40% 7 05.02.2027 -
Gabri Martínez Braga Активный 135 / 126 40% 1 04.02.2027 -
Nicolás Fernández Mercau Shakhtar Активный 138 / 137 40% 3 03.02.2027 -
Maxime Dominguez Maritimo Активный 129 / 126 40% 1 01.02.2027 -
José Hurtado Bragantino Активный 123 / 123 40% 2 29.01.2027 -
Danilo Botafogo Активный 141 / 141 40% 1 27.01.2027 -
Matheuzinho Corinthians Активный 133 / 134 40% 5 26.01.2027 -
Caio Alexandre Bahia Активный 133 / 132 40% 5 25.01.2027 -
Matheus Bidu Corinthians Активный 135 / 131 40% 4 25.01.2027 -
Christian Krasnodar Активный 132 / 135 40% 6 23.01.2027 -
Nuno Moreira Vasco da Gama Активный 131 / 130 40% 1 22.01.2027 -
Lukáš Červ Viktoria Plzen Активный 134 / 138 40% 2 20.01.2027 -
Jesús Orozco Chiquete Cruz Azul Активный 135 / 125 40% 4 16.01.2027 -
Juan Pablo Freytes Fluminense Активный 132 / 124 40% 2 08.01.2027 -
Lucas Piton Vasco da Gama Активный 133 / 126 40% 3 08.01.2027 -
Félix Lemaréchal Club Brugge Активный 130 / 140 40% 1 06.01.2027 -
Samuel Lino Flamengo Активный 143 / 139 40% 1 01.01.2027 -
Álvaro Barreal Santos Активный 133 / 129 83% 1 28.12.2026 За
Gabriel Veron Porto Активный 125 / 120 40% 2 26.12.2026 -
Eric Ramires Bragantino Активный 126 / 130 40% 1 26.12.2026 -
Henry Mosquera Bragantino Активный 134 / 130 40% 1 25.12.2026 -
Benjamín Rollheiser Santos Активный 134 / 129 40% 1 21.12.2026 -
Marquinhos Spartak Moscow Активный 128 / 134 40% 1 14.12.2026 -
Vitinho Botafogo Активный 137 / 132 40% 3 01.12.2026 -
Léo Ortiz Flamengo Активный 139 / 142 40% 2 23.11.2026 -
Vitor Carvalho Braga Активный 133 / 136 40% 1 21.11.2026 -
Mauro Arambarri River Plate Активный 157 / 155 40% 2 09.11.2026 -
Lucas Paquetá Flamengo Активный 142 / 142 40% 2 31.10.2026 -
Emerson Royal Flamengo Активный 136 / 129 40% 1 30.10.2026 -
Gustavo Marques Bragantino Активный 127 / 130 40% 2 24.10.2026 -
William Cruzeiro Активный 132 / 140 40% 3 15.10.2026 -
Fabrício Bruno Cruzeiro Активный 138 / 135 40% 2 13.10.2026 -
Jean Lucas Bahia Активный 134 / 137 40% 1 13.10.2026 -
Matty Cash Aston Villa Активный 153 / 146 40% 1 10.10.2026 -
Jesús Angulo Tigres Активный 129 / 128 40% 1 02.10.2026 -
Zeno Debast Sporting CP Активный 142 / 139 40% 3 30.09.2026 -
Martim Fernandes Porto Активный 131 / 142 40% 2 28.09.2026 -
Renan Lodi Atlético Mineiro Активный 136 / 139 40% 2 27.09.2026 -
Ibrahim Sangaré Nottingham Forest Активный 148 / 153 40% 1 27.09.2026 -
James Cardona La Equidad Активный 141 / 138 40% 1 24.09.2026 -
Alexander Bah Benfica Активный 141 / 134 40% 1 15.09.2026 -
Santiago Ramos Mingo Bahia Активный 134 / 132 40% 1 12.09.2026 -
Mathias De Amorim Famalicao Активный 130 / 132 40% 1 07.09.2026 -
Yoan Bonny Inter Активный 141 / 142 40% 2 18.08.2026 -
Youssef En-Nesyri Al-Ittihad Активный 134 / 140 40% 1 18.08.2026 -
Gabriel Jesus Barcelona Активный 150 / 158 40% 4 17.08.2026 -
Kerem Aktürkoğlu Fenerbahce Активный 140 / 133 40% 1 15.08.2026 -
Ricardo Horta Braga Активный 153 / 147 40% 1 09.08.2026 -
Dominic Calvert-Lewin Leeds United Активный 145 / 143 40% 1 05.08.2026 -
Joshua Zirkzee Manchester United Активный 147 / 136 40% 1 05.08.2026 -
Gonzalo Fulham Активный 146 / 146 40% 1 04.08.2026 -
Ángel Correa River Plate Активный 147 / 142 40% 1 04.08.2026 -
Matheus Pereira Cruzeiro Активный 140 / 137 40% 1 03.08.2026 -
Karim Adeyemi Barcelona Активный 144 / 154 40% 1 02.08.2026 -
Rodrigo Zalazar Sporting CP Активный 148 / 143 40% 1 02.08.2026 -